Time;durP1;ratioP1;P1;durP2;ratioP2;P2;SDS_P1;SDS_P2;PMS_P1;PMS_P2;Temp;Humidity;BMP_temperature;BMP_pressure;BME280_temperature;BME280_humidity;BME280_pressure;Samples;Min_cycle;Max_cycle;Signal;HPM_P1;HPM_P2
2023/05/28 00:02:06;;;;;;;6.15;3.35;;;;;;;15.89;100.00;99882.91;5078486;28;20589;-82
2023/05/28 00:04:50;;;;;;;6.07;4.05;;;;;;;15.98;100.00;99882.47;5081238;28;20502;-84
2023/05/28 00:07:34;;;;;;;5.13;3.53;;;;;;;15.90;100.00;99884.53;5085941;28;20039;-84
2023/05/28 00:10:18;;;;;;;7.18;4.25;;;;;;;15.74;100.00;99876.03;5083713;28;20097;-84
2023/05/28 00:13:02;;;;;;;6.45;3.60;;;;;;;15.65;100.00;99882.56;5084051;28;20422;-85
2023/05/28 00:15:46;;;;;;;4.20;3.25;;;;;;;15.82;100.00;99878.44;5084443;28;20052;-82
2023/05/28 00:18:30;;;;;;;6.15;4.00;;;;;;;15.91;100.00;99876.41;5083058;28;20059;-81
2023/05/28 00:21:14;;;;;;;5.78;3.80;;;;;;;15.81;100.00;99876.81;5079672;28;20039;-81
2023/05/28 00:23:58;;;;;;;7.47;3.60;;;;;;;15.81;100.00;99863.56;5077286;28;20067;-84
2023/05/28 00:26:43;;;;;;;4.78;3.42;;;;;;;15.91;100.00;99871.13;5081888;28;20511;-83
2023/05/28 00:29:26;;;;;;;5.22;3.92;;;;;;;15.62;100.00;99872.38;5080205;28;20106;-81
2023/05/28 00:32:11;;;;;;;4.55;3.85;;;;;;;15.69;100.00;99873.19;5077273;28;20090;-81
2023/05/28 00:34:55;;;;;;;8.68;4.05;;;;;;;15.60;100.00;99869.94;5081407;28;20046;-82
2023/05/28 00:37:39;;;;;;;6.30;3.75;;;;;;;15.56;100.00;99874.84;5076460;28;20036;-81
2023/05/28 00:40:23;;;;;;;4.45;3.60;;;;;;;15.61;100.00;99876.06;5081599;28;20125;-81
2023/05/28 00:43:07;;;;;;;8.35;4.00;;;;;;;15.50;100.00;99859.78;5084256;28;20039;-84
2023/05/28 00:45:51;;;;;;;7.53;3.75;;;;;;;15.46;100.00;99868.34;5086798;28;20044;-84
2023/05/28 00:48:35;;;;;;;5.68;3.65;;;;;;;15.50;100.00;99873.00;5086662;28;20093;-83
2023/05/28 00:51:19;;;;;;;6.15;4.20;;;;;;;15.64;100.00;99875.63;5079371;28;20047;-84
2023/05/28 00:54:04;;;;;;;7.35;4.28;;;;;;;15.64;100.00;99873.00;5084516;28;20097;-82
2023/05/28 00:56:48;;;;;;;6.05;4.30;;;;;;;15.74;100.00;99869.91;5085119;28;20050;-83
2023/05/28 00:59:36;;;;;;;5.70;3.97;;;;;;;15.52;100.00;99867.53;5079405;28;20043;-82
2023/05/28 01:02:20;;;;;;;5.70;3.88;;;;;;;15.67;100.00;99864.63;5079408;28;20043;-82
2023/05/28 01:05:04;;;;;;;5.57;4.15;;;;;;;15.65;100.00;99853.44;5078148;28;20090;-83
2023/05/28 01:07:48;;;;;;;7.95;3.97;;;;;;;15.47;100.00;99857.56;5080421;28;20042;-83
2023/05/28 01:10:33;;;;;;;6.60;4.00;;;;;;;15.60;100.00;99854.06;5080674;28;20529;-83
2023/05/28 01:13:17;;;;;;;5.57;4.03;;;;;;;15.35;100.00;99846.78;5084956;28;20043;-85
2023/05/28 01:16:03;;;;;;;6.45;3.88;;;;;;;15.46;100.00;99858.56;5080096;28;20055;-83
2023/05/28 01:18:48;;;;;;;6.15;4.10;;;;;;;15.37;100.00;99859.81;5075449;28;20486;-82
2023/05/28 01:21:32;;;;;;;7.70;4.07;;;;;;;15.13;100.00;99854.94;5080125;28;20062;-82
2023/05/28 01:24:17;;;;;;;6.45;4.25;;;;;;;15.19;100.00;99855.16;5075949;28;20089;-82
2023/05/28 01:27:02;;;;;;;6.88;4.38;;;;;;;15.47;100.00;99844.31;5077020;28;20066;-82
2023/05/28 01:29:46;;;;;;;6.40;4.40;;;;;;;15.29;100.00;99858.19;5081010;28;20043;-81
2023/05/28 01:32:30;;;;;;;;;;;;;;;15.41;100.00;99861.03;5074125;28;20418;-82
2023/05/28 01:35:14;;;;;;;8.27;4.55;;;;;;;15.25;100.00;99857.78;5078782;28;20005;-81
2023/05/28 01:38:03;;;;;;;8.40;4.72;;;;;;;15.30;100.00;99869.56;5076705;28;20100;-81
2023/05/28 01:40:49;;;;;;;8.93;4.65;;;;;;;15.25;100.00;99855.16;5080269;28;20052;-82
2023/05/28 01:43:33;;;;;;;7.65;3.97;;;;;;;15.30;100.00;99869.56;5078847;28;20093;-82
2023/05/28 01:46:19;;;;;;;7.38;4.15;;;;;;;15.00;100.00;99857.59;5082507;28;20445;-83
2023/05/28 01:49:03;;;;;;;9.45;4.35;;;;;;;15.13;100.00;99857.59;5079654;28;20066;-83
2023/05/28 01:51:47;;;;;;;6.45;4.70;;;;;;;15.15;100.00;99852.13;5076974;28;20078;-82
2023/05/28 01:54:31;;;;;;;8.48;4.45;;;;;;;15.02;100.00;99855.56;5072841;28;20081;-83
2023/05/28 01:57:16;;;;;;;5.78;4.10;;;;;;;15.13;100.00;99864.69;5078367;28;20043;-84
2023/05/28 02:00:00;;;;;;;8.07;4.88;;;;;;;15.06;100.00;99869.19;5079967;28;20043;-84
2023/05/28 02:02:44;;;;;;;6.53;4.80;;;;;;;15.03;100.00;99866.97;5079534;28;20098;-84
2023/05/28 02:05:29;;;;;;;6.97;4.28;;;;;;;14.98;100.00;99871.03;5078955;28;20047;-83
2023/05/28 02:08:13;;;;;;;7.10;4.20;;;;;;;15.12;100.00;99868.38;5082715;28;20059;-83
2023/05/28 02:10:57;;;;;;;7.50;4.55;;;;;;;15.07;100.00;99857.59;5078271;28;20055;-83
2023/05/28 02:13:41;;;;;;;8.07;4.97;;;;;;;14.90;100.00;99862.47;5080551;28;20090;-84
2023/05/28 02:16:25;;;;;;;7.05;4.63;;;;;;;15.06;100.00;99879.75;5076383;28;20557;-84
2023/05/28 02:19:11;;;;;;;8.13;4.55;;;;;;;14.95;100.00;99876.72;5081505;28;20511;-83
2023/05/28 02:21:58;;;;;;;8.60;4.97;;;;;;;14.83;100.00;99865.13;5082964;28;20055;-83
2023/05/28 02:24:43;;;;;;;7.72;4.57;;;;;;;14.81;100.00;99873.22;5081558;28;20059;-83
2023/05/28 02:27:27;;;;;;;7.28;5.03;;;;;;;14.81;100.00;99877.72;5083131;28;20467;-83
2023/05/28 02:30:13;;;;;;;8.80;4.68;;;;;;;14.71;100.00;99886.84;5077701;28;20562;-83
2023/05/28 02:32:57;;;;;;;5.40;4.22;;;;;;;14.66;100.00;99891.88;5076392;28;20038;-83
2023/05/28 02:35:41;;;;;;;7.70;4.93;;;;;;;14.70;100.00;99881.75;5079753;28;20105;-82
2023/05/28 02:38:25;;;;;;;7.63;4.80;;;;;;;14.78;100.00;99886.84;5082082;28;20196;-84
2023/05/28 02:41:10;;;;;;;8.95;4.93;;;;;;;14.83;100.00;99879.13;5077578;28;20505;-84
2023/05/28 02:43:54;;;;;;;9.27;5.13;;;;;;;14.71;100.00;99888.69;5082429;28;20401;-83
2023/05/28 02:46:37;;;;;;;;;;;;;;;14.69;100.00;99888.84;5078806;28;20086;-83
2023/05/28 02:49:21;;;;;;;7.50;4.88;;;;;;;14.64;100.00;99886.00;5080943;28;19920;-83
2023/05/28 02:52:05;;;;;;;6.80;4.45;;;;;;;14.85;100.00;99879.78;5081441;28;20048;-84
2023/05/28 02:54:49;;;;;;;8.90;5.05;;;;;;;14.73;100.00;99891.09;5082165;28;20181;-83
2023/05/28 02:57:33;;;;;;;6.90;4.20;;;;;;;14.53;100.00;99878.63;5078446;28;20146;-82
2023/05/28 03:00:17;;;;;;;5.25;4.40;;;;;;;14.61;100.00;99885.56;5072589;28;20074;-83
2023/05/28 03:03:01;;;;;;;8.02;4.28;;;;;;;14.65;100.00;99886.81;5079969;28;20039;-83
2023/05/28 03:05:45;;;;;;;5.38;4.00;;;;;;;14.74;100.00;99883.00;5074535;28;20094;-82
2023/05/28 03:08:30;;;;;;;6.25;4.45;;;;;;;14.91;100.00;99891.34;5081077;28;20165;-82
2023/05/28 03:11:14;;;;;;;8.38;4.10;;;;;;;14.80;100.00;99881.38;5082889;28;20063;-82
2023/05/28 03:13:58;;;;;;;8.60;4.15;;;;;;;14.80;100.00;99870.81;5077175;28;20059;-82
2023/05/28 03:16:42;;;;;;;7.57;4.18;;;;;;;14.91;100.00;99875.47;5073998;28;20543;-82
2023/05/28 03:19:26;;;;;;;6.78;4.40;;;;;;;14.77;100.00;99895.00;5077440;28;20046;-82
2023/05/28 03:22:10;;;;;;;6.15;4.10;;;;;;;14.94;100.00;99898.88;5077968;28;20039;-83
2023/05/28 03:24:56;;;;;;;4.60;3.70;;;;;;;14.78;100.00;99883.41;5079982;28;20093;-84
2023/05/28 03:27:40;;;;;;;6.25;3.92;;;;;;;14.94;100.00;99898.88;5076328;28;20064;-84
2023/05/28 03:30:24;;;;;;;6.28;4.13;;;;;;;14.91;100.00;99903.75;5078643;28;20088;-83
2023/05/28 03:33:08;;;;;;;8.15;3.97;;;;;;;14.86;100.00;99896.44;5082558;28;20034;-84
2023/05/28 03:35:52;;;;;;;;;;;;;;;14.88;100.00;99904.97;5079314;28;20086;-84
2023/05/28 03:38:36;;;;;;;4.90;3.63;;;;;;;15.02;100.00;99889.13;5075219;28;19981;-84
2023/05/28 03:41:20;;;;;;;5.25;3.58;;;;;;;14.94;100.00;99883.03;5083558;28;20119;-83
2023/05/28 03:44:05;;;;;;;4.70;3.80;;;;;;;14.99;100.00;99891.16;5082819;28;20091;-83
2023/05/28 03:46:49;;;;;;;7.50;4.43;;;;;;;15.03;100.00;99885.47;5087710;28;20047;-83
2023/05/28 03:49:33;;;;;;;7.43;3.95;;;;;;;14.78;100.00;99886.06;5081844;28;20043;-83
2023/05/28 03:52:17;;;;;;;6.22;3.90;;;;;;;14.68;100.00;99899.63;5081882;28;20577;-84
2023/05/28 03:55:01;;;;;;;6.93;3.90;;;;;;;14.77;100.00;99895.00;5080313;28;20584;-82
2023/05/28 03:57:45;;;;;;;6.35;4.15;;;;;;;14.59;100.00;99888.44;5077269;28;20508;-81
2023/05/28 04:00:29;;;;;;;6.90;4.13;;;;;;;14.45;100.00;99892.88;5077498;28;20145;-83
2023/05/28 04:03:13;;;;;;;4.93;4.43;;;;;;;14.56;100.00;99899.41;5079546;28;20714;-83
2023/05/28 04:05:56;;;;;;;6.20;4.28;;;;;;;14.47;100.00;99904.06;5084364;28;20051;-83
2023/05/28 04:08:40;;;;;;;5.75;3.83;;;;;;;14.51;100.00;99885.94;5084019;28;20147;-82
2023/05/28 04:11:29;;;;;;;7.53;4.50;;;;;;;14.60;100.00;99900.63;5080800;28;20055;-81
2023/05/28 04:14:14;;;;;;;7.78;4.65;;;;;;;14.52;100.00;99900.78;5078463;28;20105;-82
2023/05/28 04:16:58;;;;;;;7.07;4.10;;;;;;;14.42;100.00;99903.81;5079113;28;20085;-80
2023/05/28 04:19:42;;;;;;;6.78;4.30;;;;;;;14.60;100.00;99903.25;5081612;28;20090;-81
2023/05/28 04:22:27;;;;;;;7.00;4.03;;;;;;;14.33;100.00;99897.88;5081110;28;20122;-81
2023/05/28 04:25:11;;;;;;;4.15;3.50;;;;;;;14.65;100.00;99906.13;5081326;28;20563;-82
2023/05/28 04:27:56;;;;;;;7.68;4.10;;;;;;;14.56;100.00;99909.97;5078430;28;20050;-81
2023/05/28 04:30:41;;;;;;;6.35;4.68;;;;;;;14.45;100.00;99899.97;5078756;28;20064;-82
2023/05/28 04:33:28;;;;;;;7.28;5.20;;;;;;;14.68;100.00;99908.34;5079209;28;20134;-83
2023/05/28 04:36:15;;;;;;;4.47;3.83;;;;;;;14.65;100.00;99905.31;5081183;28;20127;-83
2023/05/28 04:39:04;;;;;;;5.13;3.92;;;;;;;14.48;100.00;99905.69;5084754;28;20456;-83
2023/05/28 04:41:49;;;;;;;6.68;4.40;;;;;;;14.46;100.00;99917.44;5079024;28;20051;-82
2023/05/28 04:44:33;;;;;;;5.13;3.88;;;;;;;14.57;100.00;99912.41;5076755;28;20047;-82
2023/05/28 04:47:18;;;;;;;7.15;4.38;;;;;;;14.88;100.00;99915.53;5081384;28;20115;-83
2023/05/28 04:50:04;;;;;;;7.88;4.25;;;;;;;14.81;100.00;99914.72;5078794;28;20075;-83
2023/05/28 04:52:48;;;;;;;6.07;4.03;;;;;;;14.63;100.00;99917.88;5080190;28;20059;-83
2023/05/28 04:55:32;;;;;;;6.82;4.28;;;;;;;14.67;100.00;99929.72;5079231;28;20062;-82
2023/05/28 04:58:16;;;;;;;6.18;4.30;;;;;;;14.74;100.00;99920.00;5078195;28;20043;-82
2023/05/28 05:01:01;;;;;;;4.95;4.07;;;;;;;14.89;100.00;99921.66;5080716;28;20093;-83
2023/05/28 05:03:45;;;;;;;5.38;4.30;;;;;;;15.03;100.00;99917.97;5082777;28;20051;-82
2023/05/28 05:06:30;;;;;;;5.30;4.38;;;;;;;15.09;100.00;99924.31;5080968;28;20508;-83
2023/05/28 05:09:14;;;;;;;5.28;4.00;;;;;;;15.31;100.00;99929.41;5080246;28;20555;-83
2023/05/28 05:11:58;;;;;;;4.40;4.00;;;;;;;14.49;100.00;99922.31;5084037;28;20042;-82
2023/05/28 05:14:42;;;;;;;4.40;3.95;;;;;;;14.50;100.00;99919.50;5082680;28;20047;-81
2023/05/28 05:17:26;;;;;;;6.65;4.00;;;;;;;15.08;100.00;99938.53;5076381;28;20069;-83
2023/05/28 05:20:10;;;;;;;4.88;3.88;;;;;;;14.98;100.00;99939.75;5071726;28;20039;-80
2023/05/28 05:22:55;;;;;;;6.15;4.50;;;;;;;14.93;100.00;99922.88;5073169;28;20044;-82
2023/05/28 05:25:39;;;;;;;6.47;3.63;;;;;;;15.27;100.00;99931.66;5080772;28;20066;-84
2023/05/28 05:28:23;;;;;;;6.88;4.00;;;;;;;15.28;100.00;99931.44;5081713;28;20394;-83
2023/05/28 05:31:08;;;;;;;4.32;3.88;;;;;;;15.50;100.00;99936.50;5084682;28;20062;-83
2023/05/28 05:33:51;;;;;;;7.38;4.72;;;;;;;15.46;100.00;99951.16;5081636;28;20047;-83
2023/05/28 05:36:35;;;;;;;5.88;4.07;;;;;;;15.54;100.00;99950.97;5078918;28;20500;-83
2023/05/28 05:39:20;;;;;;;6.25;3.88;;;;;;;15.26;100.00;99951.19;5078451;28;20090;-83
2023/05/28 05:42:05;;;;;;;4.25;3.75;;;;;;;15.13;100.00;99950.16;5077170;28;20441;-83
2023/05/28 05:44:49;;;;;;;5.30;4.35;;;;;;;14.90;100.00;99947.88;5082773;28;20178;-83
2023/05/28 05:47:33;;;;;;;5.00;4.43;;;;;;;15.05;100.00;99953.00;5074167;28;20043;-83
2023/05/28 05:50:17;;;;;;;4.85;4.30;;;;;;;15.10;100.00;99960.31;5078086;28;20089;-83
2023/05/28 05:53:02;;;;;;;4.65;4.20;;;;;;;15.27;100.00;99947.53;5074700;28;20118;-82
2023/05/28 05:55:47;;;;;;;5.93;4.00;;;;;;;14.66;100.00;99952.66;5072146;28;20064;-85
2023/05/28 05:58:31;;;;;;;5.20;4.60;;;;;;;14.87;100.00;99945.63;5080910;28;20513;-83
2023/05/28 06:01:17;;;;;;;5.63;4.60;;;;;;;14.98;100.00;99960.09;5080069;28;20039;-84
2023/05/28 06:04:01;;;;;;;7.10;4.10;;;;;;;15.06;100.00;99953.78;5080406;28;20040;-85
2023/05/28 06:06:46;;;;;;;5.45;4.03;;;;;;;14.77;100.00;99951.28;5074538;28;20054;-85
2023/05/28 06:09:31;;;;;;;5.32;4.15;;;;;;;14.91;100.00;99956.63;5077885;28;21772;-83
2023/05/28 06:12:15;;;;;;;7.60;4.00;;;;;;;14.77;100.00;99939.94;5079662;28;20038;-84
2023/05/28 06:15:00;;;;;;;6.22;4.00;;;;;;;15.01;100.00;99964.16;5081054;28;20047;-85
2023/05/28 06:17:44;;;;;;;6.82;4.30;;;;;;;15.30;100.00;99955.03;5074303;28;20062;-84
2023/05/28 06:20:29;;;;;;;4.53;3.85;;;;;;;15.40;100.00;99962.56;5079443;28;20097;-86
2023/05/28 06:23:13;;;;;;;5.10;3.72;;;;;;;15.21;100.00;99959.72;5086613;28;20043;-86
2023/05/28 06:25:57;;;;;;;6.38;3.58;;;;;;;15.37;100.00;99957.69;5080428;28;20051;-86
2023/05/28 06:28:41;;;;;;;5.32;4.20;;;;;;;15.02;100.00;99968.44;5077624;28;20070;-86
2023/05/28 06:31:25;;;;;;;5.60;3.95;;;;;;;15.17;100.00;99961.16;5078893;28;20090;-86
2023/05/28 06:34:10;;;;;;;5.15;4.07;;;;;;;15.28;100.00;99970.31;5081052;28;20117;-85
2023/05/28 06:36:54;;;;;;;6.25;3.97;;;;;;;15.04;100.00;99972.53;5079192;28;20034;-84
2023/05/28 06:39:38;;;;;;;5.90;4.38;;;;;;;15.43;100.00;99962.16;5077460;28;20043;-85
2023/05/28 06:42:22;;;;;;;6.30;3.75;;;;;;;16.03;100.00;99963.94;5084081;28;20065;-85
2023/05/28 06:45:07;;;;;;;6.72;3.90;;;;;;;16.08;100.00;99965.97;5086350;28;20039;-85
2023/05/28 06:47:52;;;;;;;6.57;4.03;;;;;;;15.92;100.00;99980.50;5084284;28;20058;-85
2023/05/28 06:50:36;;;;;;;8.40;3.97;;;;;;;15.87;100.00;99974.94;5085511;28;20491;-86
2023/05/28 06:53:20;;;;;;;6.97;4.10;;;;;;;16.02;100.00;99972.91;5079037;28;20130;-85
2023/05/28 06:56:05;;;;;;;7.43;4.07;;;;;;;15.78;100.00;99969.88;5082543;28;20083;-86
2023/05/28 06:58:50;;;;;;;7.22;4.32;;;;;;;16.31;100.00;99965.50;5076945;28;20438;-85
2023/05/28 07:01:34;;;;;;;5.50;3.83;;;;;;;16.62;100.00;99976.41;5080144;28;20035;-84
2023/05/28 07:04:19;;;;;;;4.45;4.03;;;;;;;16.33;100.00;99975.88;5072553;28;20098;-84
2023/05/28 07:07:03;;;;;;;6.38;4.32;;;;;;;16.51;100.00;99977.88;5077835;28;20101;-83
2023/05/28 07:09:47;;;;;;;8.38;3.85;;;;;;;17.05;100.00;99974.94;5081017;28;20180;-83
2023/05/28 07:12:31;;;;;;;7.93;4.40;;;;;;;17.42;100.00;99978.56;5078017;28;20257;-82
2023/05/28 07:15:17;;;;;;;5.30;3.75;;;;;;;16.76;100.00;99982.44;5072947;28;20143;-80
2023/05/28 07:18:01;;;;;;;7.00;3.97;;;;;;;17.46;100.00;99986.88;5077983;28;20043;-83
2023/05/28 07:20:45;;;;;;;8.32;4.22;;;;;;;18.34;98.86;99984.22;5082921;28;20040;-83
2023/05/28 07:23:29;;;;;;;6.63;3.95;;;;;;;17.50;98.09;99990.75;5082738;28;20101;-81
2023/05/28 07:26:13;;;;;;;6.35;4.05;;;;;;;17.16;100.00;99992.84;5078873;28;20046;-84
2023/05/28 07:28:58;;;;;;;4.70;3.92;;;;;;;17.15;99.78;100001.81;5082221;28;20055;-79
2023/05/28 07:31:42;;;;;;;4.75;3.90;;;;;;;17.65;99.42;100000.22;5083400;28;20475;-88
2023/05/28 07:34:26;;;;;;;6.10;3.80;;;;;;;17.51;99.23;100000.34;5082893;28;20520;-83
2023/05/28 07:37:10;;;;;;;5.93;4.15;;;;;;;17.13;99.66;100015.28;5083782;28;20456;-83
2023/05/28 07:39:54;;;;;;;5.47;4.10;;;;;;;17.62;98.23;100020.06;5081314;28;20050;-85
2023/05/28 07:42:38;;;;;;;7.63;4.10;;;;;;;17.37;99.17;100018.19;5084199;28;20047;-86
2023/05/28 07:45:22;;;;;;;5.82;4.18;;;;;;;16.91;100.00;100014.78;5084181;28;20091;-86
2023/05/28 07:48:07;;;;;;;5.28;4.13;;;;;;;17.62;97.95;100013.94;5083793;28;20078;-84
2023/05/28 07:50:53;;;;;;;7.47;4.57;;;;;;;17.32;99.50;100025.19;5083794;28;20040;-84
2023/05/28 07:53:37;;;;;;;6.40;4.20;;;;;;;17.35;98.75;100016.78;5086048;28;20074;-84
2023/05/28 07:56:24;;;;;;;5.22;4.10;;;;;;;17.99;97.35;100025.44;5083273;28;20615;-85
2023/05/28 07:59:08;;;;;;;7.57;4.35;;;;;;;18.44;95.33;100022.75;5081920;28;20102;-87
2023/05/28 08:01:52;;;;;;;8.27;4.25;;;;;;;19.27;93.21;100017.81;5087331;28;20094;-86
2023/05/28 08:04:36;;;;;;;4.93;4.28;;;;;;;18.39;93.68;100000.31;5088614;28;20102;-85
2023/05/28 08:07:20;;;;;;;9.32;4.55;;;;;;;17.60;96.85;100024.78;5081746;28;21771;-79
2023/05/28 08:10:05;;;;;;;7.15;4.68;;;;;;;17.77;96.28;100025.03;5078484;28;20097;-81
2023/05/28 08:12:49;;;;;;;8.25;4.88;;;;;;;18.40;95.38;100031.19;5080851;28;20374;-81
2023/05/28 08:15:33;;;;;;;8.98;4.95;;;;;;;18.33;96.20;100034.94;5079808;28;20054;-85
2023/05/28 08:18:17;;;;;;;7.63;4.53;;;;;;;17.99;96.14;100036.09;5084384;28;20109;-84
2023/05/28 08:21:01;;;;;;;5.03;4.20;;;;;;;18.91;94.23;100038.97;5081185;28;20047;-83
2023/05/28 08:23:46;;;;;;;7.80;5.00;;;;;;;19.10;93.39;100049.59;5084719;28;20089;-83
2023/05/28 08:26:30;;;;;;;9.02;5.28;;;;;;;19.15;92.30;100032.94;5073735;28;20042;-81
2023/05/28 08:29:14;;;;;;;8.55;5.38;;;;;;;19.01;92.72;100032.31;5079190;28;20109;-79
2023/05/28 08:31:59;;;;;;;6.70;4.75;;;;;;;18.82;93.22;100027.81;5083526;28;20040;-79
2023/05/28 08:34:43;;;;;;;9.00;5.40;;;;;;;19.33;92.58;100040.06;5074812;28;20500;-79
2023/05/28 08:37:28;;;;;;;9.48;5.55;;;;;;;18.36;93.51;100031.84;5077335;28;20054;-80
2023/05/28 08:40:13;;;;;;;12.05;4.75;;;;;;;19.30;92.28;100024.53;5075986;28;20044;-79
2023/05/28 08:42:57;;;;;;;7.45;5.25;;;;;;;19.27;93.12;100037.25;5076841;28;20128;-79
2023/05/28 08:45:41;;;;;;;11.30;5.78;;;;;;;19.39;91.58;100037.28;5073792;28;20043;-78
2023/05/28 08:48:26;;;;;;;12.52;5.15;;;;;;;19.24;92.19;100048.34;5078896;28;20454;-80
2023/05/28 08:51:11;;;;;;;7.00;4.97;;;;;;;18.99;92.96;100037.88;5074570;28;20063;-82
2023/05/28 08:53:56;;;;;;;8.38;5.50;;;;;;;19.73;91.55;100044.75;5075154;28;20091;-79
2023/05/28 08:56:40;;;;;;;11.20;5.70;;;;;;;19.39;92.24;100041.78;5078807;28;20044;-81
2023/05/28 08:59:27;;;;;;;8.63;5.18;;;;;;;19.20;92.52;100046.38;5080450;28;20531;-82
2023/05/28 09:02:12;;;;;;;9.32;5.10;;;;;;;19.86;92.49;100032.25;5075543;28;20093;-83
2023/05/28 09:04:57;;;;;;;10.40;5.65;;;;;;;18.83;92.59;100045.41;5075729;28;20059;-84
2023/05/28 09:07:42;;;;;;;10.05;5.50;;;;;;;18.93;94.00;100039.53;5077963;28;20142;-79
2023/05/28 09:10:27;;;;;;;9.85;5.82;;;;;;;19.17;93.26;100042.31;5075738;28;20046;-80
2023/05/28 09:13:11;;;;;;;8.93;5.93;;;;;;;19.69;92.10;100043.59;5077222;28;20047;-77
2023/05/28 09:15:56;;;;;;;9.48;5.93;;;;;;;19.36;91.53;100039.59;5078776;28;20093;-81
2023/05/28 09:18:40;;;;;;;12.68;6.00;;;;;;;19.24;92.46;100043.03;5074623;28;20128;-77
2023/05/28 09:21:24;;;;;;;11.77;6.30;;;;;;;19.60;92.67;100058.25;5075861;28;20043;-81
2023/05/28 09:24:08;;;;;;;7.50;5.43;;;;;;;19.42;93.69;100049.31;5072095;28;20047;-84
2023/05/28 09:26:56;;;;;;;12.05;5.28;;;;;;;20.29;90.61;100052.41;5075339;28;20055;-84
2023/05/28 09:29:40;;;;;;;11.25;5.68;;;;;;;20.02;90.80;100047.53;5081507;28;20051;-84
2023/05/28 09:32:24;;;;;;;9.02;5.97;;;;;;;19.83;90.32;100041.50;5075983;28;20427;-84
2023/05/28 09:35:08;;;;;;;11.73;6.47;;;;;;;20.49;90.01;100053.88;5076669;28;20075;-85
2023/05/28 09:38:08;;;;;;;10.73;6.43;;;;;;;20.44;89.19;100054.56;5079522;28;20075;-83
2023/05/28 09:40:55;;;;;;;9.82;6.10;;;;;;;20.36;89.63;100041.63;5084265;28;20085;-85
2023/05/28 09:43:40;;;;;;;11.75;6.18;;;;;;;20.62;88.97;100040.25;5081210;28;20097;-85
2023/05/28 09:46:34;;;;;;;11.07;6.70;;;;;;;20.39;89.52;100041.94;5078897;28;20124;-84
2023/05/28 09:49:19;;;;;;;15.38;6.60;;;;;;;20.60;88.70;100053.03;5077429;28;20069;-86
2023/05/28 09:52:05;;;;;;;11.27;5.50;;;;;;;20.91;88.27;100047.50;5081711;28;20043;-84
2023/05/28 09:54:58;;;;;;;9.02;6.22;;;;;;;20.32;89.45;100033.28;5083818;28;20111;-84
2023/05/28 09:58:05;;;;;;;15.60;6.03;;;;;;;20.85;87.88;100049.28;5065127;28;20067;-86
2023/05/28 10:00:54;;;;;;;13.07;7.22;;;;;;;19.75;90.64;100053.31;5080405;28;20040;-85
2023/05/28 10:03:43;;;;;;;10.80;6.35;;;;;;;20.43;90.45;100052.13;5074773;28;20117;-83
2023/05/28 10:06:29;;;;;;;11.77;6.78;;;;;;;20.67;89.66;100055.56;5077217;28;20114;-83
2023/05/28 10:09:16;;;;;;;11.13;6.70;;;;;;;20.61;89.52;100041.31;5080914;28;20044;-84
2023/05/28 10:12:08;;;;;;;12.88;6.60;;;;;;;21.49;86.26;100053.59;5078754;28;20102;-84
2023/05/28 10:14:52;;;;;;;9.82;6.53;;;;;;;20.15;89.04;100056.34;5083252;28;20452;-84
2023/05/28 10:17:37;;;;;;;9.70;6.13;;;;;;;21.24;88.60;100057.47;5083506;28;20507;-85
2023/05/28 10:20:22;;;;;;;8.75;6.00;;;;;;;21.97;87.26;100053.28;5080083;28;20047;-84
2023/05/28 10:23:08;;;;;;;9.15;6.50;;;;;;;21.34;87.26;100056.00;5081884;28;20051;-84
2023/05/28 10:25:54;;;;;;;10.07;6.47;;;;;;;22.16;84.22;100055.66;5082883;28;20520;-85
2023/05/28 10:28:38;;;;;;;9.68;6.43;;;;;;;22.25;84.64;100048.84;5081846;28;20063;-86
2023/05/28 10:31:23;;;;;;;8.77;6.50;;;;;;;23.04;81.92;100043.34;5079956;28;20043;-86
2023/05/28 10:34:17;;;;;;;9.73;6.72;;;;;;;21.71;84.45;100050.22;5081322;28;20109;-86
2023/05/28 10:37:03;;;;;;;11.77;6.68;;;;;;;21.75;83.95;100051.34;5080704;28;20043;-86
2023/05/28 10:39:47;;;;;;;8.32;6.32;;;;;;;20.69;88.00;100051.63;5080880;28;20059;-83
2023/05/28 10:42:39;;;;;;;8.02;6.35;;;;;;;21.34;86.82;100045.31;5077813;28;20080;-83
2023/05/28 10:45:37;;;;;;;13.65;6.75;;;;;;;20.76;88.98;100056.00;5082349;28;20043;-84
2023/05/28 10:48:21;;;;;;;10.68;6.55;;;;;;;20.30;90.04;100040.69;5080373;28;20039;-85
2023/05/28 10:51:05;;;;;;;11.27;7.25;;;;;;;19.74;92.41;100051.69;5080271;28;20516;-85
2023/05/28 10:53:50;;;;;;;12.68;7.55;;;;;;;19.75;93.39;100047.97;5082135;28;20123;-85
2023/05/28 10:56:34;;;;;;;11.23;6.40;;;;;;;19.88;94.18;100048.81;5084084;28;20047;-83
2023/05/28 10:59:36;;;;;;;11.32;6.25;;;;;;;19.22;95.63;100054.94;5079555;28;20047;-86
2023/05/28 11:02:24;;;;;;;13.98;6.60;;;;;;;18.94;96.08;100041.16;5079128;28;20058;-84
2023/05/28 11:05:08;;;;;;;13.13;6.32;;;;;;;19.72;95.21;100053.78;5075001;28;20085;-84
2023/05/28 11:07:54;;;;;;;9.15;5.65;;;;;;;19.88;94.66;100056.81;5081863;28;20051;-84
2023/05/28 11:10:39;;;;;;;15.25;6.28;;;;;;;21.12;92.04;100046.03;5085244;28;20079;-85
2023/05/28 11:13:25;;;;;;;12.52;5.80;;;;;;;21.46;89.11;100067.44;5074910;28;20094;-83
2023/05/28 11:16:11;;;;;;;13.38;6.18;;;;;;;21.29;88.33;100069.28;5084069;28;20035;-84
2023/05/28 11:19:08;;;;;;;11.05;5.68;;;;;;;21.30;88.19;100070.91;5079734;28;20051;-83
2023/05/28 11:21:53;;;;;;;8.73;5.75;;;;;;;21.76;87.25;100063.66;5077141;28;20075;-85
2023/05/28 11:25:04;;;;;;;12.85;5.80;;;;;;;22.64;85.73;100056.84;5076827;28;20075;-84
2023/05/28 11:27:50;;;;;;;10.25;5.70;;;;;;;22.16;86.57;100056.50;5076147;28;20452;-85
2023/05/28 11:30:34;;;;;;;9.63;5.13;;;;;;;22.29;85.17;100067.88;5081845;28;20047;-84
2023/05/28 11:33:18;;;;;;;10.70;5.70;;;;;;;21.62;86.78;100068.50;5078847;28;20062;-85
2023/05/28 11:36:02;;;;;;;12.15;6.25;;;;;;;20.05;91.23;100067.59;5081783;28;20093;-86
2023/05/28 11:38:47;;;;;;;13.35;6.72;;;;;;;19.81;94.23;100076.34;5082612;28;20207;-85
2023/05/28 11:41:32;;;;;;;11.77;7.43;;;;;;;19.88;94.71;100083.44;5082070;28;20085;-85
2023/05/28 11:44:22;;;;;;;12.90;6.95;;;;;;;19.67;96.50;100077.63;5078643;28;20078;-84
2023/05/28 11:47:06;;;;;;;11.77;6.88;;;;;;;19.57;96.92;100086.19;5076130;28;20054;-85
2023/05/28 11:49:51;;;;;;;12.93;7.60;;;;;;;19.71;97.33;100094.78;5079889;28;20128;-85
2023/05/28 11:52:35;;;;;;;16.50;7.38;;;;;;;19.92;96.26;100089.97;5082508;28;20132;-83
2023/05/28 11:55:19;;;;;;;13.23;7.38;;;;;;;20.04;94.82;100089.97;5081047;28;20055;-84
2023/05/28 11:58:03;;;;;;;11.85;6.68;;;;;;;20.14;94.38;100097.38;5080369;28;20058;-84
2023/05/28 12:00:55;;;;;;;11.70;7.15;;;;;;;19.85;94.56;100087.38;5079835;28;20054;-85
2023/05/28 12:03:40;;;;;;;10.05;7.00;;;;;;;20.25;93.84;100088.59;5085545;28;20079;-85
2023/05/28 12:06:24;;;;;;;10.50;7.00;;;;;;;20.31;94.02;100092.16;5078994;28;20031;-84
2023/05/28 12:09:08;;;;;;;12.55;7.00;;;;;;;20.09;94.15;100090.91;5085269;28;20035;-85
2023/05/28 12:12:03;;;;;;;13.63;7.63;;;;;;;20.61;92.72;100086.66;5087695;28;20110;-85
2023/05/28 12:14:48;;;;;;;9.75;7.40;;;;;;;20.12;93.92;100081.59;5080261;28;20104;-85
2023/05/28 12:17:39;;;;;;;12.40;6.93;;;;;;;18.84;98.44;100100.22;5083342;28;20174;-85
2023/05/28 12:20:23;;;;;;;14.85;7.53;;;;;;;18.32;100.00;100099.75;5081212;28;20108;-85
2023/05/28 12:23:12;;;;;;;10.85;6.88;;;;;;;18.92;100.00;100093.78;5077416;28;20047;-87
2023/05/28 12:25:56;;;;;;;12.10;7.78;;;;;;;18.30;100.00;100107.97;5080063;28;20139;-84
2023/05/28 12:28:41;;;;;;;13.70;7.28;;;;;;;18.21;100.00;100109.25;5082138;28;20517;-83
2023/05/28 12:31:28;;;;;;;18.42;7.25;;;;;;;17.96;100.00;100107.41;5081095;28;20040;-84
2023/05/28 12:34:12;;;;;;;12.55;7.07;;;;;;;17.82;100.00;100110.16;5082939;28;20064;-84
2023/05/28 12:36:56;;;;;;;15.80;7.30;;;;;;;18.04;100.00;100104.50;5083098;28;20051;-86
2023/05/28 12:39:40;;;;;;;14.07;7.60;;;;;;;17.48;100.00;100106.13;5084028;28;20044;-84
2023/05/28 12:42:24;;;;;;;14.23;7.70;;;;;;;17.93;100.00;100111.31;5078839;28;20047;-83
2023/05/28 12:45:09;;;;;;;18.85;9.13;;;;;;;17.61;100.00;100098.09;5082871;28;20044;-84
2023/05/28 12:47:53;;;;;;;16.08;6.95;;;;;;;17.84;100.00;100104.66;5079229;28;20063;-85